createdAt,value
2019-06-10T00:00:31.657Z,16.31
2019-06-10T00:03:04.443Z,16.50
2019-06-10T00:05:35.528Z,16.51
2019-06-10T00:08:07.106Z,16.43
2019-06-10T00:10:38.217Z,15.84
2019-06-10T00:13:11.454Z,16.04
2019-06-10T00:15:42.101Z,16.03
2019-06-10T00:18:34.171Z,15.78
2019-06-10T00:20:46.220Z,15.76
2019-06-10T00:23:17.306Z,15.71
2019-06-10T00:25:48.372Z,15.75
2019-06-10T00:28:21.575Z,15.95
2019-06-10T00:30:52.091Z,15.83
2019-06-10T00:33:23.288Z,16.19
2019-06-10T00:35:56.091Z,16.06
2019-06-10T00:38:27.153Z,16.19
2019-06-10T00:40:59.993Z,16.21
2019-06-10T00:43:31.120Z,16.15
2019-06-10T00:46:04.325Z,16.25
2019-06-10T00:48:34.923Z,16.29
2019-06-10T00:51:07.249Z,16.71
2019-06-10T00:53:38.303Z,16.67
2019-06-10T00:56:12.156Z,16.65
2019-06-10T00:58:42.116Z,16.61
2019-06-10T01:01:14.735Z,16.45
2019-06-10T01:03:45.980Z,16.28
2019-06-10T01:06:17.007Z,16.24
2019-06-10T01:08:48.005Z,16.10
2019-06-10T01:11:26.658Z,16.17
2019-06-10T01:13:53.668Z,16.27
2019-06-10T01:16:26.383Z,16.44
2019-06-10T01:19:01.269Z,16.46
2019-06-10T01:21:31.439Z,16.32
2019-06-10T01:24:02.633Z,16.22
2019-06-10T01:26:33.723Z,16.49
2019-06-10T01:29:05.663Z,16.69
2019-06-10T01:31:36.829Z,16.88
2019-06-10T01:34:07.838Z,16.84
2019-06-10T01:36:40.583Z,16.37
2019-06-10T01:39:14.494Z,16.00
2019-06-10T01:41:44.629Z,16.02
2019-06-10T01:44:16.453Z,16.22
2019-06-10T01:46:48.306Z,16.03
2019-06-10T01:49:21.304Z,16.14
2019-06-10T01:51:52.022Z,16.03
2019-06-10T01:54:23.016Z,15.60
2019-06-10T01:56:54.052Z,15.71
2019-06-10T01:59:25.049Z,15.53
2019-06-10T02:01:57.798Z,15.36
2019-06-10T02:04:31.775Z,15.38
2019-06-10T02:07:01.683Z,15.54
2019-06-10T02:09:32.762Z,15.87
2019-06-10T02:12:03.895Z,15.82
2019-06-10T02:14:34.963Z,15.57
2019-06-10T02:17:06.066Z,15.13
2019-06-10T02:19:37.127Z,14.76
2019-06-10T02:22:08.186Z,15.11
2019-06-10T02:24:41.673Z,15.09
2019-06-10T02:27:14.457Z,15.23
2019-06-10T02:29:45.475Z,15.12
2019-06-10T02:32:22.544Z,15.09
2019-06-10T02:35:03.477Z,15.16
2019-06-10T02:37:30.787Z,14.88
2019-06-10T02:39:54.932Z,14.91
2019-06-10T02:42:30.665Z,15.10
2019-06-10T02:45:03.538Z,15.05
2019-06-10T02:47:37.921Z,15.48
2019-06-10T02:50:14.216Z,15.46
2019-06-10T02:52:44.392Z,15.26
2019-06-10T02:55:17.713Z,15.33
2019-06-10T02:57:48.430Z,15.61
2019-06-10T03:00:26.774Z,15.37
2019-06-10T03:02:53.110Z,15.09
2019-06-10T03:05:29.861Z,15.04
2019-06-10T03:07:57.133Z,15.04
2019-06-10T03:10:32.482Z,15.00
2019-06-10T03:13:02.441Z,15.04
2019-06-10T03:15:35.348Z,15.22
2019-06-10T03:18:06.418Z,15.36
2019-06-10T03:20:37.425Z,15.14
2019-06-10T03:23:08.522Z,15.49
2019-06-10T03:25:39.525Z,15.65
2019-06-10T03:28:12.067Z,15.16
2019-06-10T03:30:52.942Z,15.21
2019-06-10T03:33:22.334Z,14.94
2019-06-10T03:35:52.797Z,15.35
2019-06-10T03:38:26.985Z,15.25
2019-06-10T03:40:56.466Z,15.30
2019-06-10T03:43:27.927Z,15.36
2019-06-10T03:45:59.055Z,15.08
2019-06-10T03:48:32.807Z,14.86
2019-06-10T03:51:04.043Z,14.65
2019-06-10T03:53:35.135Z,14.52
2019-06-10T03:56:06.297Z,14.67
2019-06-10T03:58:37.322Z,14.91
2019-06-10T04:01:08.412Z,14.93
2019-06-10T04:03:39.430Z,14.83
2019-06-10T04:06:12.830Z,14.96
2019-06-10T04:08:43.511Z,15.12
2019-06-10T04:11:14.533Z,15.15
2019-06-10T04:13:45.542Z,15.32
2019-06-10T04:16:17.616Z,15.03
2019-06-10T04:18:48.641Z,14.86
2019-06-10T04:21:22.319Z,15.26
2019-06-10T04:23:52.934Z,15.13
2019-06-10T04:26:25.247Z,14.92
2019-06-10T04:28:56.866Z,14.88
2019-06-10T04:31:28.067Z,14.74
2019-06-10T04:34:02.955Z,14.58
2019-06-10T04:36:34.636Z,14.54
2019-06-10T04:39:06.892Z,14.72
2019-06-10T04:41:37.923Z,14.77
2019-06-10T04:44:08.991Z,14.99
2019-06-10T04:46:39.988Z,15.36
2019-06-10T04:49:13.178Z,15.56
2019-06-10T04:51:43.780Z,15.68
2019-06-10T04:54:14.846Z,15.65
2019-06-10T04:56:45.937Z,15.79
2019-06-10T04:59:16.948Z,15.88
2019-06-10T05:01:48.066Z,15.56
2019-06-10T05:04:19.152Z,15.32
2019-06-10T05:06:52.542Z,15.59
2019-06-10T05:09:24.454Z,15.56
2019-06-10T05:11:55.732Z,15.38
2019-06-10T05:14:28.734Z,15.78
2019-06-10T05:17:02.241Z,15.36
2019-06-10T05:19:33.873Z,15.60
2019-06-10T05:22:05.056Z,15.71
2019-06-10T05:24:36.092Z,15.69
2019-06-10T05:27:07.095Z,15.69
2019-06-10T05:29:38.117Z,15.89
2019-06-10T05:32:09.124Z,16.08
2019-06-10T05:34:40.256Z,16.35
2019-06-10T05:37:12.135Z,16.38
2019-06-10T05:39:43.222Z,16.97
2019-06-10T05:42:14.266Z,16.41
2019-06-10T05:44:45.280Z,16.53
2019-06-10T05:47:16.648Z,16.26
2019-06-10T05:49:47.665Z,16.20
2019-06-10T05:52:18.676Z,16.40
2019-06-10T05:54:51.985Z,16.18
2019-06-10T05:57:24.250Z,16.14
2019-06-10T05:59:55.206Z,15.78
2019-06-10T06:02:26.205Z,15.34
2019-06-10T06:04:57.287Z,15.62
2019-06-10T06:07:29.165Z,15.84
2019-06-10T06:10:02.428Z,16.14
2019-06-10T06:12:35.723Z,16.32
2019-06-10T06:15:07.122Z,16.57
2019-06-10T06:17:38.646Z,16.77
2019-06-10T06:20:10.024Z,17.00
2019-06-10T06:22:42.820Z,16.88
2019-06-10T06:25:15.903Z,16.74
2019-06-10T06:27:46.949Z,16.89
2019-06-10T06:30:19.083Z,17.18
2019-06-10T06:32:50.062Z,17.46
2019-06-10T06:35:22.709Z,17.27
2019-06-10T06:37:54.111Z,17.49
2019-06-10T06:40:25.225Z,17.18
2019-06-10T06:42:56.180Z,17.39
2019-06-10T06:45:27.638Z,17.71
2019-06-10T06:47:59.682Z,17.75
2019-06-10T06:50:33.086Z,17.64
2019-06-10T06:53:21.024Z,17.59
2019-06-10T06:55:36.930Z,17.93
2019-06-10T06:58:09.069Z,18.17
2019-06-10T07:00:55.713Z,17.02
2019-06-10T07:03:12.985Z,16.93
2019-06-10T07:05:44.405Z,17.03
2019-06-10T07:08:16.154Z,17.22
2019-06-10T07:10:48.486Z,17.57
2019-06-10T07:13:22.057Z,17.36
2019-06-10T07:15:53.486Z,17.24
2019-06-10T07:18:24.629Z,17.07
2019-06-10T07:20:55.706Z,16.97
2019-06-10T07:23:26.703Z,16.97
2019-06-10T07:25:57.709Z,16.83
2019-06-10T07:28:28.769Z,17.17
2019-06-10T07:31:03.328Z,16.79
2019-06-10T07:33:37.495Z,16.64
2019-06-10T07:36:07.390Z,16.62
2019-06-10T07:38:40.990Z,16.81
2019-06-10T07:41:12.637Z,17.19
2019-06-10T07:43:49.437Z,17.44
2019-06-10T07:46:23.193Z,17.91
2019-06-10T07:48:56.612Z,17.51
2019-06-10T07:51:27.206Z,17.01
2019-06-10T07:53:58.216Z,16.62
2019-06-10T07:56:36.322Z,16.19
2019-06-10T07:59:04.036Z,16.79
2019-06-10T08:01:37.649Z,16.88
2019-06-10T08:04:08.965Z,16.94
2019-06-10T08:06:42.855Z,17.07
2019-06-10T08:09:12.978Z,17.19
2019-06-10T08:11:46.815Z,17.00
2019-06-10T08:14:16.887Z,17.03
2019-06-10T08:16:48.665Z,17.05
2019-06-10T08:19:31.517Z,16.88
2019-06-10T08:21:53.639Z,16.88
2019-06-10T08:24:24.779Z,16.88
2019-06-10T08:26:55.947Z,16.40
2019-06-10T08:29:26.945Z,16.44
2019-06-10T08:31:58.300Z,16.68
2019-06-10T08:34:29.309Z,16.53
2019-06-10T08:37:04.081Z,16.61
2019-06-10T08:39:33.697Z,16.55
2019-06-10T08:42:07.119Z,16.55
2019-06-10T08:44:38.819Z,16.66
2019-06-10T08:47:12.428Z,16.96
2019-06-10T08:49:46.210Z,17.04
2019-06-10T08:52:16.305Z,17.09
2019-06-10T08:54:50.949Z,17.59
2019-06-10T08:57:23.229Z,17.25
2019-06-10T08:59:53.506Z,17.01
2019-06-10T09:02:24.492Z,17.19
2019-06-10T09:04:55.488Z,17.18
2019-06-10T09:07:26.509Z,17.58
2019-06-10T09:09:57.588Z,17.63
2019-06-10T09:12:33.959Z,17.47
2019-06-10T09:15:03.677Z,17.42
2019-06-10T09:17:34.039Z,17.08
2019-06-10T09:20:08.197Z,16.91
2019-06-10T09:22:41.186Z,16.49
2019-06-10T09:25:12.540Z,16.55
2019-06-10T09:27:46.470Z,16.91
2019-06-10T09:30:16.494Z,17.18
2019-06-10T09:32:51.387Z,17.15
2019-06-10T09:35:24.103Z,16.82
2019-06-10T09:37:55.861Z,17.03
2019-06-10T09:40:47.531Z,17.18
2019-06-10T09:43:14.917Z,17.40
2019-06-10T09:45:50.211Z,18.09
2019-06-10T09:48:23.081Z,18.45
2019-06-10T09:50:58.705Z,18.22
2019-06-10T09:53:39.096Z,18.46
2019-06-10T09:55:59.951Z,18.69
2019-06-10T09:58:32.932Z,19.00
2019-06-10T10:01:05.890Z,18.83
2019-06-10T10:03:37.039Z,18.86
2019-06-10T10:06:15.400Z,19.14
2019-06-10T10:08:46.822Z,18.76
2019-06-10T10:11:14.196Z,18.59
2019-06-10T10:13:47.655Z,18.74
2019-06-10T10:16:19.566Z,18.58
2019-06-10T10:18:57.519Z,18.71
2019-06-10T10:21:23.265Z,18.82
2019-06-10T10:24:06.917Z,18.92
2019-06-10T10:26:27.056Z,18.97
2019-06-10T10:28:58.011Z,19.20
2019-06-10T10:31:29.007Z,19.62
2019-06-10T10:34:02.558Z,19.37
2019-06-10T10:36:33.664Z,18.75
2019-06-10T10:39:07.957Z,18.84
2019-06-10T10:41:39.430Z,19.24
2019-06-10T10:44:13.792Z,19.04
2019-06-10T10:46:45.662Z,19.64
2019-06-10T10:49:17.135Z,19.90
2019-06-10T10:51:49.710Z,19.98
2019-06-10T10:54:32.179Z,19.51
2019-06-10T10:56:58.370Z,19.29
2019-06-10T10:59:26.239Z,19.57
2019-06-10T11:01:57.309Z,20.04
2019-06-10T11:04:28.356Z,20.27
2019-06-10T11:07:01.165Z,20.06
2019-06-10T11:09:33.113Z,19.89
2019-06-10T11:12:04.322Z,19.79
2019-06-10T11:14:35.614Z,19.55
2019-06-10T11:17:06.612Z,19.09
2019-06-10T11:19:37.711Z,19.21
2019-06-10T11:22:08.698Z,19.30
2019-06-10T11:24:42.279Z,19.19
2019-06-10T11:27:12.820Z,19.14
2019-06-10T11:29:44.142Z,19.37
2019-06-10T11:32:15.155Z,20.27
2019-06-10T11:34:46.321Z,20.31
2019-06-10T11:37:17.542Z,20.60
2019-06-10T11:39:48.568Z,20.17
2019-06-10T11:42:19.693Z,20.44
2019-06-10T11:44:54.386Z,19.89
2019-06-10T11:47:23.559Z,19.19
2019-06-10T11:49:55.413Z,18.96
2019-06-10T11:52:27.581Z,18.99
2019-06-10T11:55:11.637Z,19.26
2019-06-10T11:57:32.921Z,19.37
2019-06-10T12:00:16.604Z,18.91
2019-06-10T12:02:48.241Z,18.65
2019-06-10T12:05:20.424Z,18.50
2019-06-10T12:07:55.756Z,18.58
2019-06-10T12:10:25.480Z,18.87
2019-06-10T12:12:58.937Z,18.88
2019-06-10T12:15:29.265Z,18.68
2019-06-10T12:18:05.947Z,18.63
2019-06-10T12:20:35.759Z,18.50
2019-06-10T12:23:06.821Z,18.56
2019-06-10T12:25:39.670Z,18.50
2019-06-10T12:28:12.747Z,18.36
2019-06-10T12:30:43.365Z,18.33
2019-06-10T12:33:21.613Z,18.81
2019-06-10T12:35:47.277Z,18.92
2019-06-10T12:38:18.854Z,18.90
2019-06-10T12:40:49.908Z,18.93
2019-06-10T12:43:23.138Z,18.71
2019-06-10T12:45:55.699Z,18.57
2019-06-10T12:48:28.858Z,18.28
2019-06-10T12:51:06.329Z,18.10
2019-06-10T12:53:34.547Z,17.95
2019-06-10T12:56:10.633Z,18.12
2019-06-10T12:58:38.402Z,18.09
2019-06-10T13:01:09.434Z,18.33
2019-06-10T13:03:43.705Z,18.18
2019-06-10T13:06:16.322Z,17.72
2019-06-10T13:08:48.008Z,17.61
2019-06-10T13:11:19.057Z,17.72
2019-06-10T13:13:50.116Z,17.50
2019-06-10T13:16:21.201Z,17.50
2019-06-10T13:18:52.593Z,17.36
2019-06-10T13:21:24.055Z,17.12
2019-06-10T13:23:56.033Z,17.28
2019-06-10T13:26:27.318Z,17.40
2019-06-10T13:28:58.983Z,17.14
2019-06-10T13:31:32.971Z,17.46
2019-06-10T13:34:08.768Z,17.18
2019-06-10T13:36:36.777Z,16.46
2019-06-10T13:39:10.347Z,16.02
2019-06-10T13:41:43.843Z,16.27
2019-06-10T13:44:16.406Z,16.58
2019-06-10T13:46:46.831Z,16.89
2019-06-10T13:49:18.300Z,16.97
2019-06-10T13:51:49.384Z,16.81
2019-06-10T13:54:23.140Z,16.93
2019-06-10T13:56:54.238Z,17.03
2019-06-10T13:59:25.329Z,17.18
2019-06-10T14:01:57.511Z,16.93
2019-06-10T14:04:28.511Z,16.80
2019-06-10T14:07:02.412Z,16.98
2019-06-10T14:09:33.114Z,16.79
2019-06-10T14:12:05.843Z,17.00
2019-06-10T14:14:37.055Z,17.35
2019-06-10T14:17:09.733Z,17.18
2019-06-10T14:19:43.119Z,17.41
2019-06-10T14:22:16.020Z,17.47
2019-06-10T14:24:46.266Z,17.98
2019-06-10T14:27:21.175Z,17.67
2019-06-10T14:29:52.891Z,17.17
2019-06-10T14:32:24.085Z,17.46
2019-06-10T14:34:55.248Z,17.43
2019-06-10T14:37:35.709Z,17.52
2019-06-10T14:39:59.018Z,17.47
2019-06-10T14:42:32.209Z,17.29
2019-06-10T14:45:04.438Z,17.44
2019-06-10T14:47:36.706Z,17.01
2019-06-10T14:50:15.348Z,17.28
2019-06-10T14:52:44.195Z,17.58
2019-06-10T14:55:18.376Z,17.82
2019-06-10T14:57:48.268Z,17.53
2019-06-10T15:00:19.609Z,17.66
2019-06-10T15:02:53.405Z,17.54
2019-06-10T15:05:23.468Z,17.91
2019-06-10T15:07:54.550Z,17.63
2019-06-10T15:10:25.541Z,18.07
2019-06-10T15:12:56.654Z,18.09
2019-06-10T15:15:27.712Z,18.39
2019-06-10T15:17:58.740Z,18.44
2019-06-10T15:20:29.808Z,18.36
2019-06-10T15:23:00.844Z,18.00
2019-06-10T15:25:48.689Z,18.14
2019-06-10T15:28:04.688Z,18.26
2019-06-10T15:30:35.720Z,18.05
2019-06-10T15:33:06.726Z,17.89
2019-06-10T15:35:37.715Z,17.77
2019-06-10T15:38:08.911Z,17.70
2019-06-10T15:40:39.949Z,17.43
2019-06-10T15:43:11.831Z,16.87
2019-06-10T15:45:43.291Z,16.67
2019-06-10T15:48:17.261Z,17.00
2019-06-10T15:50:47.353Z,16.41
2019-06-10T15:53:26.391Z,16.88
2019-06-10T15:56:29.977Z,16.83
2019-06-10T15:58:33.171Z,16.78
2019-06-10T16:01:04.325Z,17.28
2019-06-10T16:03:35.430Z,17.41
2019-06-10T16:06:06.431Z,17.11
2019-06-10T16:08:37.442Z,16.98
2019-06-10T16:11:08.469Z,17.05
2019-06-10T16:13:39.479Z,17.17
2019-06-10T16:16:10.475Z,17.36
2019-06-10T16:18:42.303Z,17.60
2019-06-10T16:21:17.454Z,17.30
2019-06-10T16:23:49.443Z,17.15
2019-06-10T16:26:23.493Z,17.09
2019-06-10T16:28:53.228Z,17.12
2019-06-10T16:31:27.127Z,17.36
2019-06-10T16:33:56.987Z,17.21
2019-06-10T16:36:28.251Z,17.28
2019-06-10T16:38:59.417Z,17.27
2019-06-10T16:41:32.390Z,17.05
2019-06-10T16:44:03.448Z,16.72
2019-06-10T16:46:34.519Z,17.22
2019-06-10T16:49:05.622Z,16.87
2019-06-10T16:51:36.627Z,16.26
2019-06-10T16:54:07.623Z,16.81
2019-06-10T16:56:38.626Z,16.88
2019-06-10T16:59:12.195Z,17.00
2019-06-10T17:01:42.886Z,17.09
2019-06-10T17:04:14.115Z,16.73
2019-06-10T17:06:45.103Z,16.99
2019-06-10T17:09:16.128Z,17.12
2019-06-10T17:11:47.114Z,17.31
2019-06-10T17:14:18.317Z,17.40
2019-06-10T17:16:49.454Z,17.47
2019-06-10T17:19:22.994Z,17.27
2019-06-10T17:21:53.313Z,17.06
2019-06-10T17:24:27.178Z,17.30
2019-06-10T17:26:57.238Z,16.95
2019-06-10T17:29:29.308Z,16.96
2019-06-10T17:32:02.765Z,17.23
2019-06-10T17:34:34.221Z,16.90
2019-06-10T17:37:05.436Z,16.86
2019-06-10T17:39:36.514Z,16.67
2019-06-10T17:42:07.577Z,16.44
2019-06-10T17:44:38.589Z,16.29
2019-06-10T17:47:09.588Z,16.80
2019-06-10T17:49:41.940Z,17.23
2019-06-10T17:52:13.194Z,16.96
2019-06-10T17:54:44.168Z,17.24
2019-06-10T17:57:15.172Z,17.03
2019-06-10T17:59:46.254Z,16.92
2019-06-10T18:02:17.526Z,17.11
2019-06-10T18:04:48.529Z,16.73
2019-06-10T18:07:19.598Z,16.49
2019-06-10T18:09:52.977Z,16.26
2019-06-10T18:12:24.231Z,16.38
2019-06-10T18:14:55.242Z,16.84
2019-06-10T18:17:27.510Z,16.91
2019-06-10T18:19:59.017Z,17.31
2019-06-10T18:22:31.219Z,17.29
2019-06-10T18:25:04.540Z,16.36
2019-06-10T18:27:36.782Z,16.43
2019-06-10T18:30:11.463Z,16.87
2019-06-10T18:32:42.961Z,16.95
2019-06-10T18:35:14.470Z,16.94
2019-06-10T18:37:45.520Z,16.75
2019-06-10T18:40:16.736Z,16.55
2019-06-10T18:42:47.739Z,15.87
2019-06-10T18:45:19.143Z,15.78
2019-06-10T18:47:52.976Z,16.12
2019-06-10T18:50:26.035Z,15.90
2019-06-10T18:52:58.869Z,15.81
2019-06-10T18:55:30.895Z,15.72
2019-06-10T18:58:02.871Z,16.27
2019-06-10T19:00:51.858Z,16.17
2019-06-10T19:03:12.691Z,16.02
2019-06-10T19:05:42.120Z,16.16
2019-06-10T19:08:13.309Z,16.44
2019-06-10T19:10:44.472Z,16.22
2019-06-10T19:13:15.513Z,16.16
2019-06-10T19:15:46.605Z,15.58
2019-06-10T19:18:17.601Z,15.68
2019-06-10T19:20:48.672Z,15.95
2019-06-10T19:23:19.747Z,16.07
2019-06-10T19:25:52.539Z,15.75
2019-06-10T19:28:23.947Z,15.81
2019-06-10T19:30:55.032Z,15.55
2019-06-10T19:33:26.030Z,15.57
2019-06-10T19:35:57.056Z,15.26
2019-06-10T19:38:28.146Z,15.36
2019-06-10T19:40:59.226Z,15.21
2019-06-10T19:43:30.223Z,15.22
2019-06-10T19:46:04.388Z,15.25
2019-06-10T19:48:38.429Z,15.39
2019-06-10T19:51:07.751Z,15.49
2019-06-10T19:53:38.942Z,15.63
2019-06-10T19:56:10.024Z,15.52
2019-06-10T19:58:43.451Z,15.55
2019-06-10T20:01:14.029Z,15.52
2019-06-10T20:03:46.990Z,15.60
2019-06-10T20:06:17.742Z,15.41
2019-06-10T20:08:52.338Z,15.43
2019-06-10T20:11:23.481Z,15.48
2019-06-10T20:13:54.559Z,15.31
2019-06-10T20:16:27.194Z,15.22
2019-06-10T20:18:58.307Z,15.02
2019-06-10T20:21:48.972Z,14.87
2019-06-10T20:24:41.344Z,14.91
2019-06-10T20:27:33.044Z,14.90
2019-06-10T20:30:28.431Z,14.96
2019-06-10T20:33:14.428Z,14.63
2019-06-10T20:36:07.051Z,14.84
2019-06-10T20:38:54.717Z,14.86
2019-06-10T20:41:47.237Z,15.02
2019-06-10T20:44:34.378Z,15.03
2019-06-10T20:51:50.208Z,14.98
2019-06-10T20:54:32.289Z,14.77
2019-06-10T20:57:22.659Z,14.64
2019-06-10T21:00:22.341Z,14.68
2019-06-10T21:03:06.892Z,14.60
2019-06-10T21:05:57.764Z,14.71
2019-06-10T21:08:49.597Z,14.70
2019-06-10T21:11:45.145Z,14.75
2019-06-10T21:14:33.113Z,14.73
2019-06-10T21:21:35.890Z,14.57
2019-06-10T21:24:08.820Z,14.56
2019-06-10T21:26:43.335Z,14.58
2019-06-10T21:29:13.585Z,14.51
2019-06-10T21:31:47.000Z,14.55
2019-06-10T21:34:17.391Z,14.37
2019-06-10T21:36:49.415Z,14.61
2019-06-10T21:39:21.476Z,14.50
2019-06-10T21:41:54.510Z,14.36
2019-06-10T21:44:25.737Z,14.44
2019-06-10T21:46:58.336Z,14.57
2019-06-10T21:49:29.365Z,14.39
2019-06-10T21:52:02.659Z,14.38
2019-06-10T21:54:33.157Z,14.41
2019-06-10T21:57:04.138Z,14.49
2019-06-10T21:59:35.158Z,14.35
2019-06-10T22:02:06.401Z,14.45
2019-06-10T22:08:37.349Z,14.71
2019-06-10T22:11:08.412Z,14.67
2019-06-10T22:13:39.454Z,14.40
2019-06-10T22:16:10.497Z,14.27
2019-06-10T22:18:42.541Z,14.38
2019-06-10T22:21:14.743Z,14.37
2019-06-10T22:23:46.668Z,14.40
2019-06-10T22:26:17.723Z,14.28
2019-06-10T22:28:49.526Z,14.43
2019-06-10T22:31:23.868Z,14.27
2019-06-10T22:33:55.848Z,14.56
2019-06-10T22:36:26.021Z,14.36
2019-06-10T22:38:59.121Z,14.94
2019-06-10T22:41:29.935Z,14.89
2019-06-10T22:44:03.310Z,14.82
2019-06-10T22:46:33.652Z,14.91
2019-06-10T22:49:04.784Z,14.60
2019-06-10T22:51:35.819Z,14.46
2019-06-10T22:54:06.814Z,14.44
2019-06-10T22:56:37.824Z,14.71
2019-06-10T22:59:08.928Z,14.66
2019-06-10T23:01:42.215Z,14.12
2019-06-10T23:04:13.484Z,14.02
2019-06-10T23:06:44.688Z,14.63
2019-06-10T23:09:15.710Z,14.66
2019-06-10T23:11:46.811Z,14.79
2019-06-10T23:14:17.909Z,14.31
2019-06-10T23:16:49.248Z,14.21
2019-06-10T23:19:20.233Z,14.29
2019-06-10T23:21:53.805Z,14.24
2019-06-10T23:24:24.111Z,14.09
2019-06-10T23:26:55.887Z,14.28
2019-06-10T23:29:26.991Z,14.17
2019-06-10T23:32:06.109Z,14.06
2019-06-10T23:34:33.059Z,14.17
2019-06-10T23:37:04.310Z,14.51
2019-06-10T23:39:35.314Z,14.46
2019-06-10T23:42:06.479Z,14.45
2019-06-10T23:44:37.469Z,14.22
2019-06-10T23:47:08.551Z,14.01
2019-06-10T23:49:39.633Z,14.02
2019-06-10T23:52:12.673Z,14.33
2019-06-10T23:54:43.358Z,14.49
2019-06-10T23:57:14.443Z,14.29
2019-06-10T23:59:45.440Z,14.06
